createdAt,value
2017-04-16T00:00:52.931Z,0
2017-04-16T00:01:52.963Z,0
2017-04-16T00:02:53.307Z,0
2017-04-16T00:03:53.602Z,0
2017-04-16T00:04:53.372Z,0
2017-04-16T00:05:53.081Z,0
2017-04-16T00:06:52.794Z,0
2017-04-16T00:07:53.447Z,0
2017-04-16T00:08:53.745Z,0
2017-04-16T00:09:53.502Z,0
2017-04-16T00:10:53.214Z,0
2017-04-16T00:11:53.550Z,0
2017-04-16T00:12:53.291Z,0
2017-04-16T00:13:53.864Z,0
2017-04-16T00:14:53.641Z,0
2017-04-16T00:15:53.351Z,0
2017-04-16T00:16:53.382Z,0
2017-04-16T00:17:53.719Z,0
2017-04-16T00:18:53.375Z,0
2017-04-16T00:19:53.786Z,0
2017-04-16T00:20:53.495Z,0
2017-04-16T00:21:53.201Z,0
2017-04-16T00:22:53.236Z,0
2017-04-16T00:23:54.132Z,0
2017-04-16T00:24:53.293Z,0
2017-04-16T00:25:53.662Z,0
2017-04-16T00:26:53.346Z,0
2017-04-16T00:27:53.375Z,0
2017-04-16T00:28:54.268Z,0
2017-04-16T00:29:54.047Z,0
2017-04-16T00:30:53.760Z,0
2017-04-16T00:31:53.497Z,0
2017-04-16T00:32:53.815Z,0
2017-04-16T00:33:54.128Z,0
2017-04-16T00:34:53.560Z,0
2017-04-16T00:35:53.588Z,0
2017-04-16T00:36:53.923Z,0
2017-04-16T00:37:54.266Z,0
2017-04-16T00:38:54.274Z,0
2017-04-16T00:39:53.703Z,0
2017-04-16T00:40:54.036Z,0
2017-04-16T00:41:54.089Z,0
2017-04-16T00:42:54.411Z,0
2017-04-16T00:43:54.354Z,0
2017-04-16T00:44:54.135Z,0
2017-04-16T00:45:54.188Z,0
2017-04-16T00:46:54.207Z,0
2017-04-16T00:47:54.231Z,0
2017-04-16T00:48:54.507Z,0
2017-04-16T00:49:54.599Z,0
2017-04-16T00:50:54.308Z,0
2017-04-16T00:51:54.037Z,0
2017-04-16T00:52:54.354Z,0
2017-04-16T00:53:54.322Z,0
2017-04-16T00:54:54.418Z,0
2017-04-16T00:55:54.128Z,0
2017-04-16T00:56:54.477Z,0
2017-04-16T00:57:54.505Z,0
2017-04-16T00:58:54.774Z,0
2017-04-16T00:59:54.863Z,0
2017-04-16T01:00:54.900Z,0
2017-04-16T01:01:54.616Z,0
2017-04-16T01:02:54.673Z,0
2017-04-16T01:03:54.918Z,0
2017-04-16T01:04:55.271Z,0
2017-04-16T01:05:55.596Z,0
2017-04-16T01:07:24.716Z,0
2017-04-16T01:08:10.467Z,0
2017-04-16T01:08:57.882Z,0
2017-04-16T01:10:57.021Z,0
2017-04-16T01:13:11.410Z,0
2017-04-16T01:15:24.718Z,0
2017-04-16T01:16:11.235Z,0
2017-04-16T01:18:10.654Z,0
2017-04-16T01:19:10.852Z,0
2017-04-16T01:20:11.230Z,0
2017-04-16T01:21:10.430Z,0
2017-04-16T01:21:56.043Z,0
2017-04-16T01:23:10.369Z,0
2017-04-16T01:24:10.722Z,0
2017-04-16T01:25:55.891Z,0
2017-04-16T01:26:56.506Z,0
2017-04-16T01:29:24.749Z,0
2017-04-16T01:30:39.952Z,0
2017-04-16T01:30:55.915Z,0
2017-04-16T01:31:56.021Z,0
2017-04-16T01:33:12.056Z,0
2017-04-16T01:33:55.657Z,0
2017-04-16T01:34:56.453Z,0
2017-04-16T01:36:25.483Z,0
2017-04-16T01:37:10.699Z,0
2017-04-16T01:38:00.064Z,0
2017-04-16T01:39:26.092Z,0
2017-04-16T01:40:12.307Z,0
2017-04-16T01:40:57.036Z,0
2017-04-16T01:42:12.552Z,0
2017-04-16T01:42:56.245Z,0
2017-04-16T01:44:16.146Z,0
2017-04-16T01:46:21.192Z,0
2017-04-16T01:47:20.269Z,0
2017-04-16T01:48:21.856Z,0
2017-04-16T01:49:05.515Z,0
2017-04-16T01:50:15.081Z,0
2017-04-16T01:51:05.598Z,0
2017-04-16T01:52:21.065Z,0
2017-04-16T01:53:06.582Z,0
2017-04-16T01:54:19.854Z,0
2017-04-16T01:55:04.925Z,0
2017-04-16T01:56:34.459Z,0
2017-04-16T01:57:48.805Z,0
2017-04-16T01:58:35.348Z,0
2017-04-16T01:59:34.423Z,0
2017-04-16T02:00:20.290Z,0
2017-04-16T02:01:20.123Z,0
2017-04-16T02:02:05.519Z,0
2017-04-16T02:03:06.831Z,0
2017-04-16T02:05:20.155Z,0
2017-04-16T02:07:35.208Z,0
2017-04-16T02:08:07.378Z,0
2017-04-16T02:09:20.702Z,0
2017-04-16T02:10:36.329Z,0
2017-04-16T02:11:20.909Z,0
2017-04-16T02:12:35.518Z,0
2017-04-16T02:14:20.121Z,0
2017-04-16T02:15:06.700Z,0
2017-04-16T02:16:21.058Z,0
2017-04-16T02:19:28.080Z,0
2017-04-16T02:20:35.558Z,0
2017-04-16T02:21:35.569Z,0
2017-04-16T02:23:17.462Z,0
2017-04-16T02:24:29.944Z,0
2017-04-16T02:25:30.719Z,0
2017-04-16T02:27:35.478Z,0
2017-04-16T02:29:15.879Z,0
2017-04-16T02:30:16.136Z,0
2017-04-16T02:31:16.164Z,0
2017-04-16T02:33:13.473Z,0
2017-04-16T02:33:40.099Z,0
2017-04-16T02:34:53.666Z,0
2017-04-16T02:35:39.124Z,0
2017-04-16T02:36:24.752Z,0
2017-04-16T02:38:03.041Z,0
2017-04-16T02:39:40.953Z,0
2017-04-16T02:41:43.922Z,0
2017-04-16T02:42:25.747Z,0
2017-04-16T02:46:28.230Z,0
2017-04-16T02:47:46.180Z,0
2017-04-16T02:48:54.732Z,0
2017-04-16T02:50:39.154Z,0
2017-04-16T02:51:26.080Z,0
2017-04-16T02:52:53.522Z,0
2017-04-16T02:53:41.351Z,0
2017-04-16T02:54:23.960Z,0
2017-04-16T02:55:39.869Z,0
2017-04-16T02:58:48.745Z,0
2017-04-16T03:00:02.675Z,0
2017-04-16T03:01:16.801Z,0
2017-04-16T03:01:48.911Z,0
2017-04-16T03:02:47.402Z,0
2017-04-16T03:04:17.451Z,0
2017-04-16T03:04:48.866Z,0
2017-04-16T03:06:03.189Z,0
2017-04-16T03:09:05.184Z,0
2017-04-16T03:10:03.050Z,0
2017-04-16T03:10:49.845Z,0
2017-04-16T03:13:17.723Z,0
2017-04-16T03:14:55.520Z,0
2017-04-16T03:15:49.085Z,0
2017-04-16T03:16:48.134Z,0
2017-04-16T03:17:47.839Z,0
2017-04-16T03:18:48.125Z,0
2017-04-16T03:19:47.585Z,0
2017-04-16T03:20:47.930Z,0
2017-04-16T03:21:47.638Z,0
2017-04-16T03:22:47.979Z,0
2017-04-16T03:23:48.775Z,0
2017-04-16T03:24:48.355Z,0
2017-04-16T03:25:48.373Z,0
2017-04-16T03:26:47.785Z,0
2017-04-16T03:27:48.122Z,0
2017-04-16T03:28:48.077Z,0
2017-04-16T03:29:48.167Z,0
2017-04-16T03:30:48.536Z,0
2017-04-16T03:31:48.529Z,0
2017-04-16T03:32:48.478Z,0
2017-04-16T03:33:48.517Z,0
2017-04-16T03:37:25.393Z,0
2017-04-16T03:42:00.850Z,0
2017-04-16T03:44:47.017Z,0
2017-04-16T03:46:00.703Z,0
2017-04-16T03:47:47.839Z,0
2017-04-16T03:49:30.152Z,0
2017-04-16T03:50:02.190Z,0
2017-04-16T03:53:30.640Z,0
2017-04-16T03:56:01.179Z,0
2017-04-16T03:57:47.477Z,0
2017-04-16T03:58:46.724Z,0
2017-04-16T04:00:00.727Z,0
2017-04-16T04:02:16.135Z,0
2017-04-16T04:03:01.791Z,0
2017-04-16T04:04:06.513Z,0
2017-04-16T04:06:16.176Z,0
2017-04-16T04:08:00.976Z,0
2017-04-16T04:10:48.282Z,0
2017-04-16T04:12:02.669Z,0
2017-04-16T04:14:02.141Z,0
2017-04-16T04:16:04.189Z,0
2017-04-16T04:18:18.602Z,0
2017-04-16T04:19:02.122Z,0
2017-04-16T04:20:19.849Z,0
2017-04-16T04:21:05.811Z,0
2017-04-16T04:22:02.546Z,0
2017-04-16T04:22:59.847Z,0
2017-04-16T04:23:51.251Z,0
2017-04-16T04:25:04.842Z,0
2017-04-16T04:26:03.359Z,0
2017-04-16T04:27:17.415Z,0
2017-04-16T04:28:02.085Z,0
2017-04-16T04:29:05.600Z,0
2017-04-16T04:30:17.074Z,0
2017-04-16T04:31:02.985Z,0
2017-04-16T04:32:03.405Z,0
2017-04-16T04:33:18.195Z,0
2017-04-16T04:34:16.255Z,0
2017-04-16T04:35:04.117Z,0
2017-04-16T04:36:03.128Z,0
2017-04-16T04:37:31.836Z,0
2017-04-16T04:39:02.540Z,0
2017-04-16T04:43:47.362Z,0
2017-04-16T04:44:20.028Z,0
2017-04-16T04:46:19.885Z,0
2017-04-16T04:48:00.765Z,0
2017-04-16T04:48:27.655Z,0
2017-04-16T04:49:41.469Z,0
2017-04-16T04:50:11.561Z,0
2017-04-16T04:51:16.215Z,0
2017-04-16T04:53:55.875Z,0
2017-04-16T04:54:57.266Z,0
2017-04-16T04:55:15.091Z,0
2017-04-16T04:56:14.792Z,0
2017-04-16T04:58:12.479Z,0
2017-04-16T05:00:43.309Z,0
2017-04-16T05:01:17.741Z,0
2017-04-16T05:03:55.521Z,0
2017-04-16T05:05:42.047Z,0
2017-04-16T05:07:12.666Z,0
2017-04-16T05:08:42.487Z,0
2017-04-16T05:09:12.373Z,0
2017-04-16T05:11:29.023Z,0
2017-04-16T05:12:58.382Z,0
2017-04-16T05:14:41.629Z,0
2017-04-16T05:15:17.459Z,0
2017-04-16T05:16:30.138Z,0
2017-04-16T05:17:42.537Z,0
2017-04-16T05:18:12.880Z,0
2017-04-16T05:19:42.773Z,0
2017-04-16T05:20:27.424Z,0
2017-04-16T05:22:27.353Z,0
2017-04-16T05:24:23.340Z,0
2017-04-16T05:25:23.611Z,5
2017-04-16T05:26:22.528Z,5
2017-04-16T05:27:21.070Z,5
2017-04-16T05:28:37.612Z,5
2017-04-16T05:29:37.379Z,5
2017-04-16T05:30:23.572Z,5
2017-04-16T05:31:22.416Z,5
2017-04-16T05:32:20.886Z,5
2017-04-16T05:33:37.201Z,5
2017-04-16T05:34:21.311Z,5
2017-04-16T05:36:05.605Z,5
2017-04-16T05:36:21.308Z,5
2017-04-16T05:38:15.858Z,5
2017-04-16T05:38:58.337Z,5
2017-04-16T05:39:44.802Z,5
2017-04-16T05:40:43.623Z,5
2017-04-16T05:41:42.604Z,5
2017-04-16T05:43:57.094Z,5
2017-04-16T05:46:11.399Z,5
2017-04-16T05:47:28.876Z,10
2017-04-16T05:48:16.283Z,10
2017-04-16T05:54:45.050Z,10
2017-04-16T05:55:50.620Z,10
2017-04-16T05:56:44.572Z,10
2017-04-16T05:59:07.567Z,10
2017-04-16T06:00:00.364Z,10
2017-04-16T06:00:30.091Z,10
2017-04-16T06:01:30.123Z,10
2017-04-16T06:02:30.524Z,5
2017-04-16T06:08:10.824Z,10
2017-04-16T06:08:59.829Z,10
2017-04-16T06:10:09.118Z,10
2017-04-16T06:10:27.541Z,10
2017-04-16T06:13:09.705Z,15
2017-04-16T06:13:40.299Z,15
2017-04-16T06:14:25.504Z,15
2017-04-16T06:15:25.538Z,15
2017-04-16T06:16:25.250Z,15
2017-04-16T06:17:25.604Z,15
2017-04-16T06:18:55.037Z,15
2017-04-16T06:21:04.422Z,15
2017-04-16T06:21:54.667Z,15
2017-04-16T06:32:06.350Z,20
2017-04-16T06:32:51.311Z,20
2017-04-16T06:34:19.769Z,20
2017-04-16T06:35:18.093Z,20
2017-04-16T06:35:49.270Z,20
2017-04-16T06:36:49.607Z,20
2017-04-16T06:37:49.893Z,20
2017-04-16T06:38:49.672Z,20
2017-04-16T06:39:49.384Z,20
2017-04-16T06:40:49.729Z,20
2017-04-16T06:41:50.015Z,20
2017-04-16T06:43:49.492Z,20
2017-04-16T06:45:18.993Z,20
2017-04-16T06:45:49.766Z,20
2017-04-16T06:46:49.881Z,20
2017-04-16T06:48:19.860Z,20
2017-04-16T06:53:16.130Z,20
2017-04-16T06:54:01.876Z,20
2017-04-16T06:55:00.277Z,20
2017-04-16T06:56:29.449Z,25
2017-04-16T06:57:00.778Z,25
2017-04-16T06:57:46.000Z,25
2017-04-16T06:58:51.988Z,25
2017-04-16T06:59:47.401Z,20
2017-04-16T07:00:46.310Z,20
2017-04-16T07:03:49.740Z,25
2017-04-16T07:05:30.442Z,25
2017-04-16T07:06:43.859Z,25
2017-04-16T07:07:25.767Z,25
2017-04-16T07:09:53.966Z,30
2017-04-16T07:10:13.209Z,30
2017-04-16T07:12:00.322Z,30
2017-04-16T07:17:04.714Z,25
2017-04-16T07:19:54.597Z,25
2017-04-16T07:20:22.883Z,25
2017-04-16T07:22:49.428Z,25
2017-04-16T07:23:19.226Z,30
2017-04-16T07:25:15.249Z,30
2017-04-16T07:26:42.315Z,30
2017-04-16T07:27:29.299Z,30
2017-04-16T07:28:30.530Z,30
2017-04-16T07:29:44.824Z,30
2017-04-16T07:30:16.177Z,30
2017-04-16T07:31:15.091Z,30
2017-04-16T07:32:15.444Z,30
2017-04-16T07:33:44.574Z,30
2017-04-16T07:34:30.031Z,30
2017-04-16T07:35:15.364Z,30
2017-04-16T07:36:44.098Z,35
2017-04-16T07:37:57.194Z,35
2017-04-16T07:38:36.199Z,35
2017-04-16T07:40:17.435Z,40
2017-04-16T07:46:21.020Z,40
2017-04-16T07:46:57.349Z,40
2017-04-16T07:48:15.011Z,40
2017-04-16T08:07:05.309Z,40
2017-04-16T08:07:14.980Z,40
2017-04-16T08:08:15.007Z,40
2017-04-16T08:09:15.116Z,40
2017-04-16T08:10:14.757Z,40
2017-04-16T08:11:15.402Z,40
2017-04-16T08:12:15.374Z,35
2017-04-16T08:13:15.155Z,35
2017-04-16T08:14:15.504Z,35
2017-04-16T08:15:15.224Z,35
2017-04-16T08:16:15.576Z,35
2017-04-16T08:17:16.149Z,35
2017-04-16T08:18:15.279Z,35
2017-04-16T08:19:16.279Z,35
2017-04-16T08:20:16.220Z,35
2017-04-16T08:21:16.115Z,35
2017-04-16T08:22:16.044Z,35
2017-04-16T08:23:15.423Z,35
2017-04-16T08:24:15.897Z,35
2017-04-16T08:25:15.812Z,35
2017-04-16T08:26:15.198Z,35
2017-04-16T08:27:15.781Z,35
2017-04-16T08:28:15.867Z,40
2017-04-16T08:29:15.896Z,40
2017-04-16T08:30:15.617Z,35
2017-04-16T08:31:15.336Z,35
2017-04-16T08:32:15.606Z,40
2017-04-16T08:33:16.003Z,45
2017-04-16T08:34:15.731Z,45
2017-04-16T08:35:15.832Z,45
2017-04-16T08:36:16.325Z,45
2017-04-16T08:37:16.063Z,45
2017-04-16T08:38:16.146Z,45
2017-04-16T08:39:15.867Z,45
2017-04-16T08:40:15.885Z,50
2017-04-16T08:41:15.617Z,50
2017-04-16T08:42:16.673Z,45
2017-04-16T08:43:15.969Z,45
2017-04-16T08:44:16.342Z,45
2017-04-16T08:45:16.254Z,45
2017-04-16T08:46:16.375Z,50
2017-04-16T08:47:16.378Z,45
2017-04-16T08:48:16.423Z,45
2017-04-16T08:49:16.137Z,40
2017-04-16T08:50:15.852Z,45
2017-04-16T08:51:16.193Z,45
2017-04-16T08:52:15.852Z,45
2017-04-16T08:53:16.566Z,45
2017-04-16T08:54:15.648Z,45
2017-04-16T08:55:16.620Z,45
2017-04-16T08:56:15.714Z,50
2017-04-16T08:57:15.986Z,50
2017-04-16T08:58:16.405Z,55
2017-04-16T08:59:16.735Z,55
2017-04-16T09:00:16.759Z,55
2017-04-16T09:01:16.508Z,55
2017-04-16T09:02:17.084Z,55
2017-04-16T09:03:16.837Z,50
2017-04-16T09:04:16.855Z,50
2017-04-16T09:05:16.582Z,55
2017-04-16T09:06:16.918Z,50
2017-04-16T09:07:17.197Z,50
2017-04-16T09:08:16.665Z,50
2017-04-16T09:09:17.011Z,45
2017-04-16T09:10:17.023Z,45
2017-04-16T09:11:16.779Z,45
2017-04-16T09:12:17.361Z,45
2017-04-16T09:13:17.113Z,40
2017-04-16T09:14:16.506Z,40
2017-04-16T09:15:17.176Z,50
2017-04-16T09:16:16.883Z,55
2017-04-16T09:17:17.160Z,55
2017-04-16T09:18:16.944Z,55
2017-04-16T09:19:16.975Z,55
2017-04-16T09:20:16.671Z,55
2017-04-16T09:21:17.360Z,55
2017-04-16T09:22:17.316Z,60
2017-04-16T09:23:17.373Z,55
2017-04-16T09:24:17.241Z,55
2017-04-16T09:25:17.443Z,55
2017-04-16T09:26:16.894Z,55
2017-04-16T09:27:17.433Z,55
2017-04-16T09:28:17.532Z,60
2017-04-16T09:29:16.926Z,60
2017-04-16T09:30:17.667Z,60
2017-04-16T09:31:17.636Z,60
2017-04-16T09:32:17.892Z,60
2017-04-16T09:33:17.669Z,60
2017-04-16T09:34:17.372Z,55
2017-04-16T09:35:17.402Z,50
2017-04-16T09:36:17.471Z,55
2017-04-16T09:37:18.068Z,55
2017-04-16T09:38:17.801Z,55
2017-04-16T09:39:17.826Z,50
2017-04-16T09:40:17.855Z,40
2017-04-16T09:41:17.716Z,40
2017-04-16T09:42:17.538Z,35
2017-04-16T09:43:17.949Z,40
2017-04-16T09:44:17.659Z,40
2017-04-16T09:45:17.723Z,35
2017-04-16T09:46:17.716Z,35
2017-04-16T09:47:17.671Z,30
2017-04-16T09:48:17.453Z,30
2017-04-16T09:49:18.102Z,30
2017-04-16T09:50:17.503Z,30
2017-04-16T09:51:17.844Z,30
2017-04-16T09:52:18.127Z,40
2017-04-16T09:53:18.439Z,35
2017-04-16T09:54:18.269Z,25
2017-04-16T09:55:18.270Z,20
2017-04-16T09:56:17.986Z,20
2017-04-16T09:57:18.580Z,30
2017-04-16T09:58:18.080Z,35
2017-04-16T09:59:18.738Z,30
2017-04-16T10:00:18.421Z,30
2017-04-16T10:01:18.459Z,35
2017-04-16T10:02:18.143Z,35
2017-04-16T10:03:18.491Z,50
2017-04-16T10:04:17.890Z,50
2017-04-16T10:05:18.237Z,40
2017-04-16T10:06:18.484Z,35
2017-04-16T10:07:17.973Z,30
2017-04-16T10:08:18.256Z,20
2017-04-16T10:09:18.648Z,30
2017-04-16T10:10:18.671Z,50
2017-04-16T10:11:18.392Z,40
2017-04-16T10:12:18.434Z,30
2017-04-16T10:13:19.020Z,35
2017-04-16T10:14:18.477Z,25
2017-04-16T10:15:18.185Z,20
2017-04-16T10:16:18.579Z,25
2017-04-16T10:17:18.563Z,50
2017-04-16T10:18:18.833Z,55
2017-04-16T10:19:18.302Z,45
2017-04-16T10:20:18.014Z,45
2017-04-16T10:21:18.675Z,35
2017-04-16T10:22:18.695Z,45
2017-04-16T10:23:19.293Z,45
2017-04-16T10:24:18.789Z,50
2017-04-16T10:25:18.778Z,60
2017-04-16T10:26:18.814Z,70
2017-04-16T10:27:18.523Z,70
2017-04-16T10:28:18.803Z,75
2017-04-16T10:29:18.888Z,70
2017-04-16T10:30:18.909Z,70
2017-04-16T10:31:19.259Z,70
2017-04-16T10:32:18.967Z,65
2017-04-16T10:33:19.251Z,70
2017-04-16T10:34:19.029Z,65
2017-04-16T10:35:19.362Z,60
2017-04-16T10:36:19.393Z,50
2017-04-16T10:37:18.795Z,35
2017-04-16T10:38:19.375Z,40
2017-04-16T10:39:19.161Z,50
2017-04-16T10:40:18.873Z,65
2017-04-16T10:41:18.901Z,70
2017-04-16T10:42:19.638Z,75
2017-04-16T10:43:19.204Z,75
2017-04-16T10:44:18.996Z,75
2017-04-16T10:45:19.639Z,80
2017-04-16T10:46:19.362Z,75
2017-04-16T10:47:19.695Z,75
2017-04-16T10:48:19.680Z,70
2017-04-16T10:49:19.437Z,75
2017-04-16T10:50:19.774Z,85
2017-04-16T10:51:19.722Z,85
2017-04-16T10:52:19.523Z,80
2017-04-16T10:53:19.800Z,85
2017-04-16T10:54:19.889Z,85
2017-04-16T10:55:19.917Z,80
2017-04-16T10:56:19.946Z,80
2017-04-16T10:57:19.651Z,70
2017-04-16T10:58:20.245Z,50
2017-04-16T10:59:19.404Z,35
2017-04-16T11:00:20.109Z,25
2017-04-16T11:01:20.099Z,20
2017-04-16T11:02:19.794Z,20
2017-04-16T11:03:20.393Z,15
2017-04-16T11:04:19.868Z,15
2017-04-16T11:05:19.896Z,15
2017-04-16T11:06:19.909Z,20
2017-04-16T11:07:19.622Z,20
2017-04-16T11:08:20.525Z,15
2017-04-16T11:09:20.305Z,15
2017-04-16T11:13:07.251Z,40
2017-04-16T11:15:07.300Z,30
2017-04-16T11:15:52.441Z,25
2017-04-16T11:17:22.154Z,45
2017-04-16T11:17:52.830Z,50
2017-04-16T11:20:15.163Z,55
2017-04-16T11:21:14.977Z,50
2017-04-16T11:23:37.967Z,50
2017-04-16T11:25:23.377Z,55
2017-04-16T11:26:37.747Z,55
2017-04-16T11:27:26.878Z,55
2017-04-16T11:28:23.532Z,55
2017-04-16T11:29:24.280Z,50
2017-04-16T11:30:22.948Z,50
2017-04-16T11:33:03.739Z,55
2017-04-16T11:33:38.227Z,55
2017-04-16T11:34:38.123Z,55
2017-04-16T11:35:23.476Z,55
2017-04-16T11:36:23.617Z,55
2017-04-16T11:37:23.122Z,50
2017-04-16T11:38:23.790Z,50
2017-04-16T11:39:52.931Z,50
2017-04-16T11:40:23.541Z,50
2017-04-16T11:41:23.252Z,50
2017-04-16T11:42:22.977Z,50
2017-04-16T11:43:23.322Z,50
2017-04-16T11:44:23.592Z,50
2017-04-16T11:45:24.007Z,55
2017-04-16T11:46:24.009Z,50
2017-04-16T11:47:23.737Z,50
2017-04-16T11:48:23.758Z,45
2017-04-16T11:49:24.051Z,40
2017-04-16T11:50:23.819Z,30
2017-04-16T11:51:24.161Z,30
2017-04-16T11:52:24.182Z,25
2017-04-16T11:53:23.894Z,15
2017-04-16T11:54:24.178Z,15
2017-04-16T11:55:24.271Z,15
2017-04-16T11:56:23.985Z,20
2017-04-16T11:57:24.326Z,25
2017-04-16T11:58:24.030Z,30
2017-04-16T11:59:24.314Z,30
2017-04-16T12:00:24.091Z,35
2017-04-16T12:01:24.564Z,45
2017-04-16T12:02:24.449Z,45
2017-04-16T12:03:23.857Z,40
2017-04-16T12:04:24.450Z,40
2017-04-16T12:05:24.539Z,40
2017-04-16T12:06:24.615Z,35
2017-04-16T12:07:24.601Z,40
2017-04-16T12:08:24.626Z,45
2017-04-16T12:09:24.913Z,45
2017-04-16T12:10:24.690Z,55
2017-04-16T12:11:24.512Z,60
2017-04-16T12:12:24.421Z,55
2017-04-16T12:13:24.133Z,55
2017-04-16T12:14:24.735Z,65
2017-04-16T12:15:24.195Z,75
2017-04-16T12:16:24.845Z,75
2017-04-16T12:17:24.873Z,70
2017-04-16T12:18:24.593Z,55
2017-04-16T12:19:24.557Z,50
2017-04-16T12:20:24.652Z,60
2017-04-16T12:21:24.679Z,55
2017-04-16T12:22:24.700Z,50
2017-04-16T12:23:24.716Z,65
2017-04-16T12:24:25.351Z,65
2017-04-16T12:25:24.778Z,60
2017-04-16T12:26:24.496Z,60
2017-04-16T12:27:24.844Z,55
2017-04-16T12:28:24.869Z,50
2017-04-16T12:29:25.453Z,50
2017-04-16T12:30:25.236Z,45
2017-04-16T12:31:24.988Z,40
2017-04-16T12:32:24.968Z,40
2017-04-16T12:33:25.025Z,35
2017-04-16T12:34:25.278Z,35
2017-04-16T12:35:25.366Z,40
2017-04-16T12:36:25.219Z,40
2017-04-16T12:37:25.423Z,45
2017-04-16T12:38:25.444Z,50
2017-04-16T12:39:25.738Z,55
2017-04-16T12:40:25.218Z,55
2017-04-16T12:41:24.902Z,50
2017-04-16T12:42:25.555Z,50
2017-04-16T12:43:25.281Z,50
2017-04-16T12:44:24.946Z,50
2017-04-16T12:45:25.342Z,50
2017-04-16T12:46:25.355Z,50
2017-04-16T12:47:25.379Z,50
2017-04-16T12:48:25.728Z,55
2017-04-16T12:49:25.692Z,55
2017-04-16T12:50:25.782Z,60
2017-04-16T12:51:25.498Z,65
2017-04-16T12:52:25.854Z,65
2017-04-16T12:53:25.558Z,65
2017-04-16T12:54:26.333Z,60
2017-04-16T12:55:25.918Z,50
2017-04-16T12:56:25.659Z,50
2017-04-16T12:57:25.653Z,50
2017-04-16T12:58:25.679Z,50
2017-04-16T12:59:25.653Z,50
2017-04-16T13:00:26.058Z,45
2017-04-16T13:01:25.779Z,45
2017-04-16T13:02:26.129Z,40
2017-04-16T13:03:25.828Z,40
2017-04-16T13:04:26.110Z,40
2017-04-16T13:05:26.726Z,35
2017-04-16T13:06:25.907Z,35
2017-04-16T13:07:26.256Z,30
2017-04-16T13:08:26.280Z,35
2017-04-16T13:09:25.930Z,35
2017-04-16T13:10:25.705Z,30
2017-04-16T13:11:26.418Z,25
2017-04-16T13:12:26.751Z,25
2017-04-16T13:13:26.459Z,25
2017-04-16T13:14:27.587Z,25
2017-04-16T13:15:25.546Z,25
2017-04-16T13:16:27.655Z,25
2017-04-16T13:17:26.215Z,20
2017-04-16T13:18:26.556Z,15
2017-04-16T13:19:26.507Z,10
2017-04-16T13:20:26.805Z,10
2017-04-16T13:21:26.339Z,10
2017-04-16T13:22:26.670Z,10
2017-04-16T13:23:26.383Z,10
2017-04-16T13:24:26.684Z,10
2017-04-16T13:25:26.433Z,10
2017-04-16T13:26:26.465Z,15
2017-04-16T13:27:26.171Z,15
2017-04-16T13:28:27.075Z,15
2017-04-16T13:29:26.797Z,20
2017-04-16T13:30:26.965Z,45
2017-04-16T13:31:26.598Z,60
2017-04-16T13:32:26.011Z,75
2017-04-16T13:33:26.975Z,80
2017-04-16T13:34:26.936Z,70
2017-04-16T13:35:27.019Z,65
2017-04-16T13:36:27.058Z,60
2017-04-16T13:37:26.862Z,65
2017-04-16T13:38:26.791Z,65
2017-04-16T13:39:27.386Z,70
2017-04-16T13:40:27.165Z,65
2017-04-16T13:41:27.190Z,55
2017-04-16T13:42:27.221Z,75
2017-04-16T13:43:26.303Z,100
2017-04-16T13:44:27.222Z,105
2017-04-16T13:45:27.305Z,95
2017-04-16T13:46:26.694Z,95
2017-04-16T13:47:27.044Z,100
2017-04-16T13:48:26.760Z,90
2017-04-16T13:49:27.664Z,90
2017-04-16T13:50:27.129Z,100
2017-04-16T13:51:26.853Z,100
2017-04-16T13:52:27.497Z,95
2017-04-16T13:53:27.523Z,100
2017-04-16T13:54:27.808Z,95
2017-04-16T13:55:27.580Z,85
2017-04-16T13:56:27.289Z,65
2017-04-16T13:57:27.022Z,60
2017-04-16T13:58:27.663Z,60
2017-04-16T13:59:27.949Z,80
2017-04-16T14:00:27.412Z,55
2017-04-16T14:01:27.439Z,50
2017-04-16T14:02:27.777Z,45
2017-04-16T14:03:27.802Z,35
2017-04-16T14:04:28.087Z,30
2017-04-16T14:05:27.858Z,30
2017-04-16T14:06:27.577Z,25
2017-04-16T14:07:27.594Z,30
2017-04-16T14:08:27.320Z,55
2017-04-16T14:09:28.224Z,50
2017-04-16T14:10:27.377Z,50
2017-04-16T14:11:27.709Z,35
2017-04-16T14:12:27.917Z,35
2017-04-16T14:13:27.455Z,45
2017-04-16T14:14:28.365Z,55
2017-04-16T14:15:27.831Z,60
2017-04-16T14:16:27.848Z,60
2017-04-16T14:17:27.571Z,50
2017-04-16T14:18:27.899Z,50
2017-04-16T14:19:28.194Z,40
2017-04-16T14:20:28.380Z,40
2017-04-16T14:21:28.300Z,35
2017-04-16T14:22:28.024Z,45
2017-04-16T14:23:28.034Z,55
2017-04-16T14:24:28.643Z,45
2017-04-16T14:25:28.402Z,35
2017-04-16T14:26:28.121Z,40
2017-04-16T14:27:28.158Z,40
2017-04-16T14:28:28.182Z,45
2017-04-16T14:29:28.793Z,45
2017-04-16T14:30:28.559Z,50
2017-04-16T14:31:28.576Z,65
2017-04-16T14:32:28.606Z,75
2017-04-16T14:33:27.704Z,65
2017-04-16T14:34:28.287Z,55
2017-04-16T14:35:28.684Z,60
2017-04-16T14:36:28.716Z,65
2017-04-16T14:37:28.438Z,70
2017-04-16T14:38:28.770Z,60
2017-04-16T14:39:28.751Z,60
2017-04-16T14:40:28.523Z,60
2017-04-16T14:41:28.849Z,55
2017-04-16T14:42:28.882Z,35
2017-04-16T14:43:28.917Z,45
2017-04-16T14:44:28.566Z,40
2017-04-16T14:45:28.659Z,35
2017-04-16T14:46:28.535Z,35
2017-04-16T14:47:29.032Z,35
2017-04-16T14:48:28.745Z,30
2017-04-16T14:49:29.022Z,20
2017-04-16T14:50:28.811Z,20
2017-04-16T14:51:28.824Z,30
2017-04-16T14:52:29.165Z,40
2017-04-16T14:53:28.893Z,40
2017-04-16T14:54:29.274Z,30
2017-04-16T14:55:29.035Z,15
2017-04-16T14:56:29.275Z,10
2017-04-16T14:57:28.997Z,15
2017-04-16T14:58:29.342Z,15
2017-04-16T14:59:29.010Z,15
2017-04-16T15:00:29.404Z,15
2017-04-16T15:01:29.422Z,15
2017-04-16T15:02:28.815Z,15
2017-04-16T15:03:28.885Z,20
2017-04-16T15:04:29.142Z,20
2017-04-16T15:05:29.519Z,10
2017-04-16T15:06:29.248Z,10
2017-04-16T15:07:28.956Z,10
2017-04-16T15:08:29.620Z,10
2017-04-16T15:09:28.958Z,10
2017-04-16T15:10:29.043Z,5
2017-04-16T15:11:29.704Z,10
2017-04-16T15:12:29.490Z,10
2017-04-16T15:13:29.444Z,10
2017-04-16T15:14:29.714Z,15
2017-04-16T15:15:29.807Z,15
2017-04-16T15:16:29.834Z,15
2017-04-16T15:17:29.553Z,15
2017-04-16T15:18:29.336Z,15
2017-04-16T15:19:30.173Z,15
2017-04-16T15:20:29.632Z,15
2017-04-16T15:21:29.346Z,15
2017-04-16T15:22:29.380Z,15
2017-04-16T15:23:29.721Z,15
2017-04-16T15:24:30.028Z,10
2017-04-16T15:25:30.086Z,10
2017-04-16T15:26:29.805Z,5
2017-04-16T15:27:29.837Z,5
2017-04-16T15:28:30.408Z,10
2017-04-16T15:29:30.605Z,10
2017-04-16T15:30:29.915Z,10
2017-04-16T15:31:29.625Z,10
2017-04-16T15:32:30.297Z,10
2017-04-16T15:33:30.039Z,10
2017-04-16T15:34:29.701Z,10
2017-04-16T15:35:30.007Z,10
2017-04-16T15:36:30.951Z,10
2017-04-16T15:37:30.449Z,10
2017-04-16T15:38:30.445Z,10
2017-04-16T15:39:29.837Z,10
2017-04-16T15:40:30.770Z,10
2017-04-16T15:41:29.899Z,10
2017-04-16T15:42:30.239Z,10
2017-04-16T15:43:30.325Z,10
2017-04-16T15:44:30.626Z,10
2017-04-16T15:45:30.890Z,10
2017-04-16T15:46:30.876Z,10
2017-04-16T15:47:30.378Z,10
2017-04-16T15:48:30.411Z,10
2017-04-16T15:49:30.753Z,10
2017-04-16T15:50:30.710Z,10
2017-04-16T15:51:30.799Z,5
2017-04-16T15:52:30.836Z,5
2017-04-16T15:53:30.538Z,5
2017-04-16T15:54:30.975Z,5
2017-04-16T15:55:31.493Z,5
2017-04-16T15:56:30.615Z,5
2017-04-16T15:57:30.644Z,5
2017-04-16T15:58:31.033Z,5
2017-04-16T15:59:30.401Z,5
2017-04-16T16:00:31.002Z,5
2017-04-16T16:01:30.772Z,5
2017-04-16T16:02:30.207Z,5
2017-04-16T16:03:30.395Z,0
2017-04-16T16:04:30.532Z,0
2017-04-16T16:05:31.134Z,0
2017-04-16T16:06:30.903Z,0
2017-04-16T16:07:31.251Z,0
2017-04-16T16:08:30.961Z,0
2017-04-16T16:09:30.664Z,0
2017-04-16T16:10:31.580Z,0
2017-04-16T16:11:31.038Z,0
2017-04-16T16:12:31.071Z,0
2017-04-16T16:13:31.408Z,0
2017-04-16T16:14:31.125Z,0
2017-04-16T16:15:31.392Z,0
2017-04-16T16:16:30.877Z,0
2017-04-16T16:17:31.523Z,5
2017-04-16T16:18:31.232Z,5
2017-04-16T16:19:31.261Z,5
2017-04-16T16:20:31.853Z,5
2017-04-16T16:21:30.998Z,5
2017-04-16T16:22:30.727Z,5
2017-04-16T16:23:31.684Z,5
2017-04-16T16:24:31.083Z,5
2017-04-16T16:25:31.678Z,5
2017-04-16T16:26:31.769Z,5
2017-04-16T16:27:31.487Z,5
2017-04-16T16:28:31.514Z,5
2017-04-16T16:29:31.856Z,0
2017-04-16T16:30:32.138Z,0
2017-04-16T16:31:31.590Z,0
2017-04-16T16:32:31.942Z,0
2017-04-16T16:33:31.330Z,0
2017-04-16T16:34:31.990Z,0
2017-04-16T16:35:32.260Z,0
2017-04-16T16:36:32.039Z,5
2017-04-16T16:37:31.765Z,5
2017-04-16T16:38:32.064Z,5
2017-04-16T16:39:31.821Z,5
2017-04-16T16:40:32.098Z,5
2017-04-16T16:41:32.182Z,5
2017-04-16T16:42:31.893Z,5
2017-04-16T16:43:31.911Z,5
2017-04-16T16:44:32.263Z,5
2017-04-16T16:45:31.969Z,0